Reklama

Seznam meteostanic a jejich METAR

Vyhledat místa podle abecedy:
A B C D E F G H I J K L M N O P Q R S T U V W X Y Z

Filtrovat:

ID stanice:
a/nebo
Název místa (fulltext):
 
Místo (ID)Naposledy načteno 
Pardubice (Pardubice) 06.12.2019 00:00 UTC Zobrazit data
Místo: Pardubice
Teplota: 0 °C (pocitová: -4.3 °C)
Vítr: 1 m/s z(e) 170°
Počasí: zataženo
Dohlednost: 10 km
Zákl. oblačnosti: 8/8 450 m
Vlhkost: 80%
Pec pod Sněžkou (Pec p.Snez) 06.12.2019 00:00 UTC Zobrazit data
Místo: Pec pod Sněžkou
Teplota: -6 °C (pocitová: -11.6 °C)
Vítr: 1 m/s z(e) 0°
Počasí:
Dohlednost: 16 km
Zákl. oblačnosti: N/A
Vlhkost: 93%
Plzeň město - Mikulka (Plzen/Miku) 06.12.2019 00:00 UTC Zobrazit data
Místo: Plzeň město - Mikulka
Teplota: 0 °C (pocitová: -7.3 °C)
Vítr: 3 m/s z(e) 200°
Počasí: zataženo
Dohlednost: 5 km
Zákl. oblačnosti: 8/8 210 m
Vlhkost: 93%
Polom (Polom) 05.12.2019 17:00 UTC Zobrazit data
Místo: Polom
Teplota: -4 °C (pocitová: -16.1 °C)
Vítr: 7 m/s z(e) 180°
Počasí: sněží
Dohlednost: 300 m
Zákl. oblačnosti: 8/8 30 m
Vlhkost: 100%
Praha - Karlov (Praha/Kar) 06.12.2019 00:00 UTC Zobrazit data
Místo: Praha - Karlov
Teplota: 0 °C (pocitová: -7.3 °C)
Vítr: 3 m/s z(e) 190°
Počasí: zataženo
Dohlednost: 7 km
Zákl. oblačnosti: 8/8 390 m
Vlhkost: 87%
Praha - Kbely (Praha/Kbe) 06.12.2019 00:00 UTC Zobrazit data
Místo: Praha - Kbely
Teplota: 0 °C (pocitová: -7.3 °C)
Vítr: 3 m/s z(e) 180°
Počasí: zataženo
Dohlednost: 10 km
Zákl. oblačnosti: 8/8 330 m
Vlhkost: 75%
Praha - Libuš (Praha/Lib) 06.12.2019 00:00 UTC Zobrazit data
Místo: Praha - Libuš
Teplota: 0 °C (pocitová: -5.9 °C)
Vítr: 2 m/s z(e) 0°
Počasí: zataženo
Dohlednost: 6 km
Zákl. oblačnosti: 8/8 300 m
Vlhkost: 87%
Praha - Ruzyně (Praha/Ru) 06.12.2019 00:00 UTC Zobrazit data
Místo: Praha - Ruzyně
Teplota: -1 °C (pocitová: -9.8 °C)
Vítr: 4 m/s z(e) 190°
Počasí: zataženo
Dohlednost: 7 km
Zákl. oblačnosti: 8/8 240 m
Vlhkost: 93%
Přibyslav (Pribyslav) 06.12.2019 00:00 UTC Zobrazit data
Místo: Přibyslav
Teplota: -3 °C (pocitová: -14 °C)
Vítr: 6 m/s z(e) 160°
Počasí: zataženo
Dohlednost: 2800 m
Zákl. oblačnosti: 8/8 90 m
Vlhkost: 93%
Přimda (Primda) 06.12.2019 00:00 UTC Zobrazit data
Místo: Přimda
Teplota: -3 °C (pocitová: -14 °C)
Vítr: 6 m/s z(e) 270°
Počasí: mlha
Dohlednost: 600 m
Zákl. oblačnosti: 8/8 30 m
Vlhkost: 93%
Pago Pago (NSTU) 05.12.2019 22:50 UTC Zobrazit METAR
NSTU 052250Z 10013KT 12SM FEW023 SCT040 BKN100 32/26 A298 RMK SLP117 T03180257
Palanga (EYPA) 05.12.2019 23:50 UTC Zobrazit METAR
EYPA 052350Z AUTO 24009KT 200V280 9999 BKN016/// 06/03 Q1007
Palermo (LICJ) 05.12.2019 23:50 UTC Zobrazit METAR
LICJ 052350Z 19003KT 140V220 9999 FEW030 13/11 Q1022
Palma de Mallorca (LEPA) 06.12.2019 00:00 UTC Zobrazit METAR
LEPA 060000Z 04002KT 9999 FEW020 10/09 Q1021 NOSIG
Panama City (MPTO) 06.12.2019 00:00 UTC Zobrazit METAR
MPTO 060000Z 28006KT 9999 SCT018 SCT090 27/25 Q1009 NOSIG
Paramaribo (SMZO) 05.12.2019 22:00 UTC Zobrazit METAR
SMZO 052200Z 10008KT 9999 VCSH FEW015 BKN030 26/24 Q1011 NOSIG
Paris (LFPG) 05.12.2019 18:00 UTC Zobrazit METAR
LFPG 051800Z 18006KT 150V250 3000 BR FEW001 SCT003 BKN004 01/00 Q1023 NOSIG
Paro (VQPR) 05.12.2019 10:00 UTC Zobrazit METAR
VQPR 051000Z 14015KT 9999 FEW100 16/M12 Q1025
Phnom Penh (VDPP) 06.12.2019 00:00 UTC Zobrazit METAR
VDPP 060000Z 03012KT 9999 FEW017 21/15 Q1015
Plovdiv (LBPD) 05.12.2019 12:00 UTC Zobrazit METAR
LBPD 051200Z AUTO VRB02KT 9999 BKN018 04/M01 Q1031 NOSIG
Pohnpei I (PTPN) 05.12.2019 23:55 UTC Zobrazit METAR
PTPN 052355Z 36008KT 15SM SCT018 BKN300 30/26 A2981
Ponta Delgada (LPPD) 06.12.2019 00:00 UTC Zobrazit METAR
LPPD 060000Z 02006KT 9999 FEW022 14/10 Q1031
Pori (EFPO) 05.12.2019 23:50 UTC Zobrazit METAR
EFPO 052350Z AUTO 23013G26KT 9999 OVC030 06/02 Q0987
Port Moresby (AYPY) 06.12.2019 00:00 UTC Zobrazit METAR
AYPY 060000Z 26008KT 9999 FU HZ FEW037 SCT240 31/25 Q1010
Port of Spain (TTPP) 06.12.2019 00:00 UTC Zobrazit METAR
TTPP 060000Z 00000KT 9999 VCSH FEW018 26/23 Q1013 NOSIG
Port Vila (NVVV) 06.12.2019 00:00 UTC Zobrazit METAR
NVVV 060000Z 27010KT 9999 BKN020 30/24 Q1009
Port-au-Prince (MTPP) 05.12.2019 23:59 UTC Zobrazit METAR
MTPP 052359Z AUTO 28005KT 9000 ////// 28/23 Q1015 A2998 NOSIG
Porto (LPPR) 06.12.2019 00:00 UTC Zobrazit METAR
LPPR 060000Z VRB02KT CAVOK 07/05 Q1022
Poznan (EPPO) 06.12.2019 00:00 UTC Zobrazit METAR
EPPO 060000Z 21010KT 9000 NSC M02/M04 Q1016
Prague (LKPR) 06.12.2019 00:00 UTC Zobrazit METAR
LKPR 060000Z 18007KT 7000 OVC008 M02/M03 Q1020 NOSIG
Praia (GVFM) Zatím nenačteno  
Pyongyang (ZKPY) Zatím nenačteno  
Reklama

Počasí na Váš email

Emaily jsou bez reklamy a bez spamu



Odhlásit newsletter

Reklama


Lunární kalendář

  • 12.12.
  • 19.12.
  • 26.12.
  • 03.01.



Reklama


Reklama
Povinné ručení
Reklama



Reklama